createdAt,value
2023-01-04T00:00:18.770Z,11.27
2023-01-04T00:04:21.761Z,10.47
2023-01-04T00:08:24.791Z,10.03
2023-01-04T00:12:29.136Z,13.57
2023-01-04T00:16:31.995Z,14.13
2023-01-04T00:20:34.857Z,12.87
2023-01-04T00:24:37.566Z,9.60
2023-01-04T00:28:41.803Z,9.47
2023-01-04T00:32:44.662Z,9.20
2023-01-04T00:36:48.979Z,8.60
2023-01-04T00:40:51.693Z,8.83
2023-01-04T00:44:56.055Z,9.43
2023-01-04T00:49:00.688Z,9.03
2023-01-04T00:53:03.748Z,9.40
2023-01-04T00:57:07.309Z,9.17
2023-01-04T01:01:11.699Z,8.57
2023-01-04T01:05:14.538Z,9.10
2023-01-04T01:09:18.505Z,9.00
2023-01-04T01:13:22.033Z,9.37
2023-01-04T01:17:26.228Z,8.90
2023-01-04T01:21:29.279Z,9.20
2023-01-04T01:25:34.424Z,8.90
2023-01-04T01:29:37.128Z,8.90
2023-01-04T01:33:42.359Z,9.00
2023-01-04T01:37:45.353Z,9.07
2023-01-04T01:41:48.509Z,8.70
2023-01-04T01:45:53.741Z,10.07
2023-01-04T01:49:57.930Z,9.80
2023-01-04T01:54:04.285Z,10.43
2023-01-04T01:58:07.833Z,12.23
2023-01-04T02:02:11.689Z,11.57
2023-01-04T02:06:20.399Z,10.67
2023-01-04T02:10:24.288Z,10.67
2023-01-04T02:14:30.445Z,10.90
2023-01-04T02:18:36.612Z,10.23
2023-01-04T02:22:56.970Z,10.17
2023-01-04T02:27:39.887Z,11.17
2023-01-04T02:31:47.066Z,10.33
2023-01-04T02:35:54.726Z,12.13
2023-01-04T02:40:00.665Z,10.93
2023-01-04T02:44:26.982Z,10.60
2023-01-04T02:48:55.333Z,10.93
2023-01-04T02:52:58.277Z,10.90
2023-01-04T02:57:08.821Z,12.13
2023-01-04T03:01:32.894Z,11.07
2023-01-04T03:06:01.784Z,10.93
2023-01-04T03:10:09.027Z,11.20
2023-01-04T03:14:31.465Z,11.80
2023-01-04T03:18:39.752Z,12.90
2023-01-04T03:23:04.667Z,11.53
2023-01-04T03:27:27.097Z,11.60
2023-01-04T03:31:51.633Z,12.97
2023-01-04T03:36:00.018Z,14.20
2023-01-04T03:40:35.031Z,12.13
2023-01-04T03:45:05.876Z,12.33
2023-01-04T03:49:15.345Z,12.40
2023-01-04T03:53:18.744Z,13.30
2023-01-04T03:57:23.280Z,13.00
2023-01-04T04:01:27.854Z,14.40
2023-01-04T04:05:48.359Z,12.93
2023-01-04T04:09:51.347Z,13.10
2023-01-04T04:13:55.689Z,14.03
2023-01-04T04:17:58.336Z,13.60
2023-01-04T04:22:01.141Z,13.13
2023-01-04T04:26:03.919Z,11.43
2023-01-04T04:30:09.443Z,11.77
2023-01-04T04:34:12.770Z,11.40
2023-01-04T04:38:15.688Z,12.70
2023-01-04T04:42:18.345Z,11.53
2023-01-04T04:46:22.828Z,11.40
2023-01-04T04:50:25.568Z,11.50
2023-01-04T04:54:28.559Z,10.87
2023-01-04T04:58:31.339Z,12.13
2023-01-04T05:02:35.524Z,11.20
2023-01-04T05:06:38.605Z,10.90
2023-01-04T05:10:41.436Z,12.80
2023-01-04T05:14:44.077Z,12.70
2023-01-04T05:18:48.143Z,13.40
2023-01-04T05:22:50.806Z,11.83
2023-01-04T05:26:53.472Z,13.33
2023-01-04T05:30:56.372Z,13.03
2023-01-04T05:35:00.415Z,11.77
2023-01-04T05:39:03.333Z,12.20
2023-01-04T05:43:06.346Z,12.37
2023-01-04T05:47:14.710Z,12.30
2023-01-04T05:51:19.238Z,11.53
2023-01-04T05:55:22.423Z,11.67
2023-01-04T05:59:25.065Z,12.63
2023-01-04T06:03:28.105Z,12.30
2023-01-04T06:07:32.368Z,11.50
2023-01-04T06:11:35.383Z,11.77
2023-01-04T06:15:42.997Z,10.83
2023-01-04T06:19:46.079Z,10.53
2023-01-04T06:23:50.191Z,11.03
2023-01-04T06:27:52.869Z,11.07
2023-01-04T06:31:56.140Z,11.93
2023-01-04T06:35:59.294Z,11.20
2023-01-04T06:40:03.389Z,11.43
2023-01-04T06:44:06.520Z,10.63
2023-01-04T06:48:09.618Z,10.50
2023-01-04T06:52:12.296Z,10.17
2023-01-04T06:56:16.533Z,10.20
2023-01-04T07:00:19.665Z,9.90
2023-01-04T07:04:22.423Z,11.70
2023-01-04T07:08:25.224Z,10.93
2023-01-04T07:12:29.257Z,11.17
2023-01-04T07:16:32.239Z,10.60
2023-01-04T07:20:34.953Z,10.90
2023-01-04T07:24:37.942Z,9.90
2023-01-04T07:28:59.280Z,10.50
2023-01-04T07:33:01.966Z,10.23
2023-01-04T07:37:04.774Z,10.10
2023-01-04T07:41:07.450Z,10.60
2023-01-04T07:45:11.889Z,10.90
2023-01-04T07:49:18.469Z,9.83
2023-01-04T07:53:21.692Z,9.47
2023-01-04T07:57:24.398Z,9.50
2023-01-04T08:01:28.898Z,9.87
2023-01-04T08:05:33.501Z,9.27
2023-01-04T08:09:36.209Z,9.97
2023-01-04T08:13:39.100Z,9.63
2023-01-04T08:17:43.384Z,9.67
2023-01-04T08:21:46.479Z,8.47
2023-01-04T08:25:49.139Z,8.97
2023-01-04T08:29:52.063Z,8.77
2023-01-04T08:33:56.722Z,7.53
2023-01-04T08:38:20.161Z,7.23
2023-01-04T08:42:30.774Z,6.90
2023-01-04T08:46:34.669Z,6.73
2023-01-04T08:50:38.865Z,6.40
2023-01-04T08:54:41.583Z,5.90
2023-01-04T08:58:44.315Z,4.70
2023-01-04T09:02:46.997Z,4.80
2023-01-04T09:06:51.133Z,4.23
2023-01-04T09:10:53.792Z,4.37
2023-01-04T09:14:56.500Z,3.87
2023-01-04T09:18:59.422Z,3.57
2023-01-04T09:23:03.589Z,3.33
2023-01-04T09:27:06.312Z,2.57
2023-01-04T09:31:09.709Z,3.10
2023-01-04T09:35:12.646Z,2.27
2023-01-04T09:39:24.429Z,2.23
2023-01-04T09:43:30.374Z,2.50
2023-01-04T09:47:39.811Z,2.20
2023-01-04T09:51:45.042Z,2.00
2023-01-04T09:55:51.356Z,2.10
2023-01-04T09:59:58.665Z,2.10
2023-01-04T10:04:06.774Z,1.60
2023-01-04T10:08:16.577Z,1.40
2023-01-04T10:12:34.497Z,1.60
2023-01-04T10:21:32.638Z,1.07
2023-01-04T10:25:42.934Z,1.00
2023-01-04T10:29:57.733Z,1.00
2023-01-04T10:34:04.715Z,1.20
2023-01-04T10:38:14.533Z,0.70
2023-01-04T10:42:22.178Z,0.83
2023-01-04T10:46:29.989Z,0.90
2023-01-04T10:50:39.743Z,0.90
2023-01-04T10:54:47.894Z,0.70
2023-01-04T10:58:53.522Z,1.93
2023-01-04T11:03:08.235Z,0.73
2023-01-04T11:07:16.225Z,0.70
2023-01-04T11:11:23.311Z,0.80
2023-01-04T11:15:26.173Z,0.60
2023-01-04T11:19:31.325Z,1.03
2023-01-04T11:23:33.982Z,1.40
2023-01-04T11:27:43.196Z,1.00
2023-01-04T11:31:49.702Z,0.80
2023-01-04T11:35:55.721Z,0.60
2023-01-04T11:40:20.769Z,0.67
2023-01-04T11:44:24.070Z,0.70
2023-01-04T11:48:35.718Z,0.50
2023-01-04T11:52:41.326Z,0.70
2023-01-04T11:56:59.566Z,0.63
2023-01-04T12:01:02.344Z,0.70
2023-01-04T12:05:24.260Z,0.50
2023-01-04T12:09:32.999Z,0.73
2023-01-04T12:13:36.093Z,0.70
2023-01-04T12:17:47.112Z,0.40
2023-01-04T12:21:53.096Z,0.57
2023-01-04T12:25:57.591Z,0.60
2023-01-04T12:30:02.593Z,0.50
2023-01-04T12:34:41.440Z,0.60
2023-01-04T12:39:03.955Z,0.60
2023-01-04T12:43:28.022Z,0.70
2023-01-04T12:47:58.634Z,0.50
2023-01-04T12:52:55.145Z,0.60
2023-01-04T12:57:29.426Z,0.70
2023-01-04T13:01:35.585Z,0.60
2023-01-04T13:05:57.076Z,0.60
2023-01-04T13:10:02.326Z,0.50
2023-01-04T13:14:09.192Z,0.50
2023-01-04T13:18:28.872Z,0.60
2023-01-04T13:22:33.973Z,0.60
2023-01-04T13:26:41.118Z,0.60
2023-01-04T13:30:44.172Z,0.50
2023-01-04T13:34:52.727Z,0.60
2023-01-04T13:38:56.026Z,0.60
2023-01-04T13:43:10.846Z,0.57
2023-01-04T13:47:14.001Z,0.70
2023-01-04T13:51:23.682Z,0.90
2023-01-04T13:55:28.315Z,0.70
2023-01-04T13:59:30.997Z,1.40
2023-01-04T14:03:37.964Z,1.13
2023-01-04T14:07:43.689Z,2.30
2023-01-04T14:12:07.721Z,1.60
2023-01-04T14:16:13.794Z,1.90
2023-01-04T14:20:34.769Z,3.20
2023-01-04T14:29:22.795Z,0.83
2023-01-04T14:33:32.577Z,1.53
2023-01-04T14:37:35.878Z,0.90
2023-01-04T14:41:41.863Z,1.27
2023-01-04T14:45:44.642Z,0.70
2023-01-04T14:49:47.429Z,1.50
2023-01-04T14:53:51.055Z,1.40
2023-01-04T14:57:55.163Z,1.27
2023-01-04T15:01:59.254Z,0.80
2023-01-04T15:06:02.199Z,1.00
2023-01-04T15:10:07.640Z,1.20
2023-01-04T15:14:12.021Z,1.00
2023-01-04T15:18:14.891Z,1.10
2023-01-04T15:22:17.590Z,1.83
2023-01-04T15:26:20.343Z,1.30
2023-01-04T15:30:24.905Z,2.00
2023-01-04T15:34:27.761Z,1.70
2023-01-04T15:38:30.591Z,1.53
2023-01-04T15:42:51.135Z,1.17
2023-01-04T15:46:55.359Z,1.10
2023-01-04T15:50:59.449Z,1.63
2023-01-04T15:55:02.443Z,1.00
2023-01-04T15:59:05.209Z,1.10
2023-01-04T16:03:09.416Z,1.50
2023-01-04T16:07:12.583Z,1.13
2023-01-04T16:11:17.261Z,1.97
2023-01-04T16:15:23.470Z,1.70
2023-01-04T16:19:27.658Z,2.00
2023-01-04T16:23:30.442Z,2.53
2023-01-04T16:27:35.597Z,3.10
2023-01-04T16:31:38.976Z,2.30
2023-01-04T16:35:43.335Z,2.83
2023-01-04T16:44:09.156Z,3.30
2023-01-04T16:48:18.096Z,5.77
2023-01-04T16:52:26.708Z,3.47
2023-01-04T16:56:30.718Z,3.17
2023-01-04T17:00:34.214Z,3.97
2023-01-04T17:04:37.268Z,2.30
2023-01-04T17:08:41.809Z,1.90
2023-01-04T17:12:47.550Z,3.47
2023-01-04T17:16:51.072Z,1.30
2023-01-04T17:20:55.544Z,1.50
2023-01-04T17:25:03.780Z,1.37
2023-01-04T17:29:06.723Z,1.17
2023-01-04T17:33:09.423Z,0.60
2023-01-04T17:37:12.377Z,0.60
2023-01-04T17:41:18.017Z,0.80
2023-01-04T17:45:21.651Z,0.90
2023-01-04T17:49:31.086Z,1.20
2023-01-04T17:53:34.875Z,1.50
2023-01-04T18:01:46.011Z,0.80
2023-01-04T18:05:52.175Z,0.63
2023-01-04T18:10:02.549Z,0.80
2023-01-04T18:14:10.231Z,1.00
2023-01-04T18:18:16.669Z,0.87
2023-01-04T18:22:19.689Z,0.90
2023-01-04T18:26:23.169Z,1.30
2023-01-04T18:30:27.871Z,1.00
2023-01-04T18:34:30.940Z,1.00
2023-01-04T18:38:34.467Z,0.70
2023-01-04T18:42:37.394Z,0.70
2023-01-04T18:46:41.638Z,0.60
2023-01-04T18:50:44.483Z,0.90
2023-01-04T18:54:48.428Z,0.60
2023-01-04T18:58:52.928Z,0.70
2023-01-04T19:02:58.057Z,0.63
2023-01-04T19:07:01.224Z,1.00
2023-01-04T19:11:04.243Z,1.33
2023-01-04T19:15:08.803Z,1.33
2023-01-04T19:19:13.116Z,1.20
2023-01-04T19:23:15.884Z,1.20
2023-01-04T19:27:19.548Z,0.70
2023-01-04T19:31:22.975Z,0.70
2023-01-04T19:35:28.649Z,0.60
2023-01-04T19:39:31.366Z,0.60
2023-01-04T19:43:34.185Z,0.50
2023-01-04T19:47:36.905Z,0.50
2023-01-04T19:51:43.682Z,0.65
2023-01-04T19:55:46.455Z,0.93
2023-01-04T19:59:49.186Z,0.80
2023-01-04T20:03:53.096Z,0.70
2023-01-04T20:07:57.201Z,0.50
2023-01-04T20:12:00.425Z,0.60
2023-01-04T20:16:04.749Z,1.13
2023-01-04T20:20:07.871Z,0.70
2023-01-04T20:24:12.285Z,0.63
2023-01-04T20:28:15.363Z,0.57
2023-01-04T20:32:18.027Z,0.50
2023-01-04T20:36:22.565Z,0.60
2023-01-04T20:40:27.970Z,0.40
2023-01-04T20:44:30.972Z,0.60
2023-01-04T20:48:33.683Z,0.60
2023-01-04T20:52:36.493Z,0.60
2023-01-04T20:56:41.119Z,0.50
2023-01-04T21:00:46.303Z,0.60
2023-01-04T21:04:49.103Z,0.60
2023-01-04T21:08:54.715Z,0.50
2023-01-04T21:12:59.263Z,0.80
2023-01-04T21:17:02.292Z,0.70
2023-01-04T21:21:09.598Z,0.57
2023-01-04T21:25:12.754Z,0.60
2023-01-04T21:29:17.001Z,0.70
2023-01-04T21:33:20.157Z,0.60
2023-01-04T21:37:22.875Z,0.70
2023-01-04T21:41:26.930Z,0.80
2023-01-04T21:45:31.228Z,0.70
2023-01-04T21:49:33.950Z,0.60
2023-01-04T21:53:37.875Z,0.70
2023-01-04T21:57:40.616Z,0.80
2023-01-04T22:01:44.775Z,0.60
2023-01-04T22:05:47.541Z,0.43
2023-01-04T22:09:57.099Z,0.67
2023-01-04T22:14:00.495Z,0.60
2023-01-04T22:18:05.300Z,0.63
2023-01-04T22:22:08.259Z,0.60
2023-01-04T22:26:11.258Z,0.63
2023-01-04T22:30:14.503Z,0.70
2023-01-04T22:34:18.828Z,0.60
2023-01-04T22:38:21.733Z,0.70
2023-01-04T22:42:24.549Z,0.70
2023-01-04T22:46:28.477Z,0.50
2023-01-04T22:50:32.642Z,0.60
2023-01-04T22:54:35.651Z,0.50
2023-01-04T22:58:38.675Z,0.40
2023-01-04T23:02:41.626Z,0.50
2023-01-04T23:06:46.275Z,0.60
2023-01-04T23:10:49.003Z,0.60
2023-01-04T23:14:51.633Z,0.70
2023-01-04T23:18:54.567Z,0.60
2023-01-04T23:22:58.925Z,0.50
2023-01-04T23:27:01.627Z,0.63
2023-01-04T23:31:04.983Z,0.57
2023-01-04T23:35:09.564Z,0.70
2023-01-04T23:39:16.054Z,0.70
2023-01-04T23:43:18.745Z,0.60
2023-01-04T23:47:21.465Z,0.60
2023-01-04T23:51:24.154Z,0.53
2023-01-04T23:55:28.218Z,0.60
2023-01-04T23:59:31.627Z,0.80
